createdAt,value
2022-09-27T00:02:29.280Z,11.65
2022-09-27T00:04:59.425Z,11.64
2022-09-27T00:07:29.886Z,11.62
2022-09-27T00:10:00.041Z,11.58
2022-09-27T00:12:30.176Z,11.57
2022-09-27T00:15:01.144Z,11.56
2022-09-27T00:17:31.685Z,11.56
2022-09-27T00:20:03.639Z,11.55
2022-09-27T00:22:33.733Z,11.53
2022-09-27T00:25:05.726Z,11.53
2022-09-27T00:27:35.862Z,11.52
2022-09-27T00:30:07.047Z,11.51
2022-09-27T00:32:37.179Z,11.49
2022-09-27T00:35:08.378Z,11.47
2022-09-27T00:37:38.546Z,11.46
2022-09-27T00:40:10.077Z,11.45
2022-09-27T00:42:40.508Z,11.46
2022-09-27T00:45:19.249Z,11.47
2022-09-27T00:47:57.441Z,11.44
2022-09-27T00:50:32.766Z,11.42
2022-09-27T00:53:10.819Z,11.43
2022-09-27T00:55:45.641Z,11.43
2022-09-27T00:58:19.857Z,11.43
2022-09-27T01:00:54.983Z,11.44
2022-09-27T01:03:32.989Z,11.45
2022-09-27T01:06:04.033Z,11.45
2022-09-27T01:08:35.423Z,11.45
2022-09-27T01:11:19.614Z,11.45
2022-09-27T01:14:10.027Z,11.47
2022-09-27T01:16:49.233Z,11.47
2022-09-27T01:19:40.008Z,11.48
2022-09-27T01:22:15.546Z,11.48
2022-09-27T01:24:58.322Z,11.48
2022-09-27T01:28:01.725Z,11.49
2022-09-27T01:30:43.119Z,11.49
2022-09-27T01:33:23.653Z,11.49
2022-09-27T01:36:07.129Z,11.50
2022-09-27T01:38:48.005Z,11.50
2022-09-27T01:41:29.018Z,11.51
2022-09-27T01:44:04.809Z,11.52
2022-09-27T01:46:39.436Z,11.53
2022-09-27T01:49:17.034Z,11.54
2022-09-27T01:51:53.195Z,11.54
2022-09-27T01:54:31.608Z,11.52
2022-09-27T01:57:05.102Z,11.51
2022-09-27T01:59:41.475Z,11.50
2022-09-27T02:02:13.412Z,11.49
2022-09-27T02:04:45.709Z,11.49
2022-09-27T02:07:21.857Z,11.48
2022-09-27T02:09:56.766Z,11.50
2022-09-27T02:12:32.053Z,11.49
2022-09-27T02:15:06.913Z,11.49
2022-09-27T02:17:46.022Z,11.49
2022-09-27T02:20:20.813Z,11.50
2022-09-27T02:22:56.216Z,11.51
2022-09-27T02:25:31.900Z,11.51
2022-09-27T02:28:13.931Z,11.51
2022-09-27T02:30:44.200Z,11.51
2022-09-27T02:33:14.740Z,11.49
2022-09-27T02:35:45.875Z,11.49
2022-09-27T02:38:16.907Z,11.49
2022-09-27T02:40:49.025Z,11.48
2022-09-27T02:43:21.739Z,11.49
2022-09-27T02:46:06.913Z,11.48
2022-09-27T02:48:51.207Z,11.47
2022-09-27T02:51:42.256Z,11.47
2022-09-27T02:54:25.362Z,11.47
2022-09-27T02:57:08.176Z,11.45
2022-09-27T02:59:48.424Z,11.43
2022-09-27T03:02:28.952Z,11.42
2022-09-27T03:05:03.780Z,11.43
2022-09-27T03:07:35.193Z,11.43
2022-09-27T03:10:05.666Z,11.44
2022-09-27T03:12:36.232Z,11.45
2022-09-27T03:15:07.670Z,11.46
2022-09-27T03:17:38.110Z,11.46
2022-09-27T03:20:09.369Z,11.46
2022-09-27T03:22:40.769Z,11.46
2022-09-27T03:25:12.647Z,11.46
2022-09-27T03:27:42.784Z,11.48
2022-09-27T03:30:16.018Z,11.49
2022-09-27T03:32:46.637Z,11.49
2022-09-27T03:35:17.146Z,11.50
2022-09-27T03:37:47.661Z,11.50
2022-09-27T03:40:18.026Z,11.51
2022-09-27T03:42:49.997Z,11.51
2022-09-27T03:45:20.730Z,11.53
2022-09-27T03:47:51.027Z,11.54
2022-09-27T03:50:21.692Z,11.54
2022-09-27T03:52:51.805Z,11.54
2022-09-27T03:55:21.944Z,11.54
2022-09-27T03:57:52.057Z,11.53
2022-09-27T04:00:22.786Z,11.52
2022-09-27T04:02:53.275Z,11.51
2022-09-27T04:05:24.148Z,11.49
2022-09-27T04:07:54.323Z,11.48
2022-09-27T04:10:24.767Z,11.48
2022-09-27T04:12:55.218Z,11.47
2022-09-27T04:15:25.414Z,11.47
2022-09-27T04:17:55.975Z,11.47
2022-09-27T04:20:26.209Z,11.48
2022-09-27T04:22:56.479Z,11.48
2022-09-27T04:25:26.704Z,11.48
2022-09-27T04:27:57.240Z,11.47
2022-09-27T04:30:27.507Z,11.45
2022-09-27T04:32:57.826Z,11.44
2022-09-27T04:35:45.880Z,11.43
2022-09-27T04:38:16.285Z,11.43
2022-09-27T04:40:49.079Z,11.42
2022-09-27T04:43:20.157Z,11.41
2022-09-27T04:45:50.394Z,11.41
2022-09-27T04:48:20.568Z,11.40
2022-09-27T04:50:58.505Z,11.40
2022-09-27T04:53:29.645Z,11.40
2022-09-27T04:56:02.803Z,11.39
2022-09-27T04:58:34.223Z,11.37
2022-09-27T05:01:04.950Z,11.34
2022-09-27T05:03:35.245Z,11.32
2022-09-27T05:06:05.687Z,11.31
2022-09-27T05:08:36.163Z,11.31
2022-09-27T05:11:06.470Z,11.29
2022-09-27T05:13:36.849Z,11.30
2022-09-27T05:16:08.721Z,11.30
2022-09-27T05:18:38.910Z,11.29
2022-09-27T05:21:09.209Z,11.28
2022-09-27T05:23:39.361Z,11.27
2022-09-27T05:26:09.909Z,11.25
2022-09-27T05:28:44.408Z,11.23
2022-09-27T05:31:14.803Z,11.20
2022-09-27T05:33:45.049Z,11.14
2022-09-27T05:36:16.486Z,11.07
2022-09-27T05:38:46.650Z,11.01
2022-09-27T05:41:17.175Z,10.97
2022-09-27T05:43:47.377Z,10.91
2022-09-27T05:46:17.515Z,10.86
2022-09-27T05:48:47.736Z,10.82
2022-09-27T05:51:19.245Z,10.79
2022-09-27T05:53:50.006Z,10.78
2022-09-27T05:56:20.390Z,10.77
2022-09-27T05:58:50.523Z,10.77
2022-09-27T06:01:21.267Z,10.77
2022-09-27T06:03:53.151Z,10.77
2022-09-27T06:06:23.761Z,10.78
2022-09-27T06:08:53.991Z,10.77
2022-09-27T06:11:25.378Z,10.77
2022-09-27T06:13:55.775Z,10.76
2022-09-27T06:16:26.114Z,10.75
2022-09-27T06:18:57.175Z,10.69
2022-09-27T06:21:28.788Z,10.75
2022-09-27T06:23:59.659Z,10.75
2022-09-27T06:26:29.784Z,10.77
2022-09-27T06:28:59.902Z,10.79
2022-09-27T06:31:29.990Z,10.81
2022-09-27T06:34:00.544Z,10.85
2022-09-27T06:36:30.638Z,10.87
2022-09-27T06:39:01.937Z,10.89
2022-09-27T06:41:32.809Z,10.93
2022-09-27T06:44:03.635Z,10.95
2022-09-27T06:46:33.855Z,10.98
2022-09-27T06:49:04.064Z,11.00
2022-09-27T06:51:34.173Z,11.02
2022-09-27T06:54:04.611Z,11.02
2022-09-27T06:56:34.992Z,11.02
2022-09-27T06:59:22.793Z,11.03
2022-09-27T07:01:53.635Z,11.04
2022-09-27T07:04:23.933Z,11.04
2022-09-27T07:06:54.484Z,11.06
2022-09-27T07:09:24.711Z,11.08
2022-09-27T07:11:55.584Z,11.09
2022-09-27T07:14:27.521Z,11.11
2022-09-27T07:16:57.649Z,11.14
2022-09-27T07:19:28.466Z,11.18
2022-09-27T07:21:58.824Z,11.22
2022-09-27T07:24:28.941Z,11.27
2022-09-27T07:26:59.388Z,11.31
2022-09-27T07:29:29.535Z,11.33
2022-09-27T07:31:59.678Z,11.34
2022-09-27T07:34:30.208Z,11.36
2022-09-27T07:37:05.492Z,11.36
2022-09-27T07:39:35.901Z,11.36
2022-09-27T07:42:07.153Z,11.34
2022-09-27T07:44:37.694Z,11.32
2022-09-27T07:47:11.045Z,11.30
2022-09-27T07:49:41.175Z,11.31
2022-09-27T07:52:11.577Z,11.30
2022-09-27T07:54:41.711Z,11.30
2022-09-27T07:57:11.892Z,11.31
2022-09-27T07:59:42.639Z,11.33
2022-09-27T08:02:16.779Z,11.34
2022-09-27T08:04:47.887Z,11.37
2022-09-27T08:07:18.237Z,11.41
2022-09-27T08:09:48.727Z,11.42
2022-09-27T08:12:21.499Z,11.45
2022-09-27T08:14:52.084Z,11.51
2022-09-27T08:17:22.180Z,11.56
2022-09-27T08:19:52.539Z,11.58
2022-09-27T08:22:23.049Z,11.62
2022-09-27T08:24:53.173Z,11.66
2022-09-27T08:27:23.303Z,11.71
2022-09-27T08:29:53.428Z,11.75
2022-09-27T08:32:23.849Z,11.79
2022-09-27T08:34:54.253Z,11.79
2022-09-27T08:37:24.893Z,11.77
2022-09-27T08:39:55.054Z,11.75
2022-09-27T08:42:35.349Z,11.75
2022-09-27T08:45:09.477Z,11.76
2022-09-27T08:47:43.944Z,11.76
2022-09-27T08:50:26.591Z,11.75
2022-09-27T08:53:01.170Z,11.74
2022-09-27T08:55:37.231Z,11.70
2022-09-27T08:58:17.712Z,11.67
2022-09-27T09:00:51.968Z,11.65
2022-09-27T09:03:25.771Z,11.61
2022-09-27T09:06:11.753Z,11.56
2022-09-27T09:08:52.347Z,11.50
2022-09-27T09:11:56.383Z,11.46
2022-09-27T09:14:45.522Z,11.40
2022-09-27T09:17:27.003Z,11.36
2022-09-27T09:20:17.360Z,11.33
2022-09-27T09:23:06.858Z,11.31
2022-09-27T09:25:47.943Z,11.30
2022-09-27T09:28:34.391Z,11.30
2022-09-27T09:31:11.535Z,11.31
2022-09-27T09:33:47.290Z,11.33
2022-09-27T09:36:26.291Z,11.37
2022-09-27T09:39:00.541Z,11.41
2022-09-27T09:41:35.917Z,11.46
2022-09-27T09:44:15.980Z,11.51
2022-09-27T09:46:50.378Z,11.57
2022-09-27T09:49:27.343Z,11.59
2022-09-27T09:52:08.585Z,11.63
2022-09-27T09:54:42.579Z,11.69
2022-09-27T09:57:19.692Z,11.73
2022-09-27T09:59:54.605Z,11.79
2022-09-27T10:02:33.195Z,11.87
2022-09-27T10:05:09.882Z,11.92
2022-09-27T10:07:41.932Z,11.97
2022-09-27T10:10:17.134Z,12.02
2022-09-27T10:12:49.026Z,12.03
2022-09-27T10:15:21.715Z,12.08
2022-09-27T10:17:54.599Z,12.20
2022-09-27T10:20:34.559Z,12.30
2022-09-27T10:23:12.407Z,12.38
2022-09-27T10:25:48.978Z,12.46
2022-09-27T10:28:33.922Z,12.51
2022-09-27T10:31:06.769Z,12.48
2022-09-27T10:33:39.322Z,12.47
2022-09-27T10:36:26.410Z,12.45
2022-09-27T10:39:00.625Z,12.48
2022-09-27T10:41:36.637Z,12.50
2022-09-27T10:44:26.389Z,12.52
2022-09-27T10:47:00.173Z,12.54
2022-09-27T10:49:33.807Z,12.57
2022-09-27T10:52:06.166Z,12.63
2022-09-27T10:54:38.535Z,12.70
2022-09-27T10:57:17.417Z,12.76
2022-09-27T10:59:52.360Z,12.79
2022-09-27T11:02:26.315Z,12.78
2022-09-27T11:05:14.672Z,12.77
2022-09-27T11:07:53.476Z,12.73
2022-09-27T11:10:29.131Z,12.71
2022-09-27T11:13:14.159Z,12.68
2022-09-27T11:16:00.672Z,12.63
2022-09-27T11:18:42.685Z,12.52
2022-09-27T11:21:24.626Z,12.44
2022-09-27T11:24:17.218Z,12.36
2022-09-27T11:27:00.194Z,12.19
2022-09-27T11:29:40.723Z,12.04
2022-09-27T11:32:20.978Z,11.91
2022-09-27T11:35:32.504Z,11.79
2022-09-27T11:38:34.524Z,11.68
2022-09-27T11:41:30.357Z,11.56
2022-09-27T11:44:19.790Z,11.45
2022-09-27T11:47:00.257Z,11.40
2022-09-27T11:49:53.413Z,11.40
2022-09-27T11:52:41.809Z,11.43
2022-09-27T11:55:36.939Z,11.50
2022-09-27T11:58:18.841Z,11.58
2022-09-27T12:01:04.590Z,11.65
2022-09-27T12:04:10.434Z,11.73
2022-09-27T12:06:52.320Z,11.79
2022-09-27T12:09:26.959Z,11.85
2022-09-27T12:12:04.543Z,11.89
2022-09-27T12:14:41.409Z,11.92
2022-09-27T12:17:17.242Z,11.93
2022-09-27T12:19:50.816Z,11.99
2022-09-27T12:22:53.947Z,12.09
2022-09-27T12:25:21.350Z,12.23
2022-09-27T12:27:56.960Z,12.38
2022-09-27T12:30:27.295Z,12.50
2022-09-27T12:33:07.983Z,12.56
2022-09-27T12:35:46.372Z,12.57
2022-09-27T12:38:20.814Z,12.57
2022-09-27T12:40:56.510Z,12.56
2022-09-27T12:43:29.206Z,12.51
2022-09-27T12:46:08.609Z,12.39
2022-09-27T12:48:48.742Z,12.28
2022-09-27T12:51:21.704Z,12.22
2022-09-27T12:54:09.094Z,12.21
2022-09-27T12:56:52.451Z,12.21
2022-09-27T12:59:44.373Z,12.15
2022-09-27T13:02:41.451Z,12.10
2022-09-27T13:05:44.719Z,12.06
2022-09-27T13:08:45.303Z,12.00
2022-09-27T13:11:22.003Z,11.98
2022-09-27T13:13:55.869Z,12.00
2022-09-27T13:16:26.833Z,12.06
2022-09-27T13:19:01.819Z,12.11
2022-09-27T13:21:57.583Z,12.13
2022-09-27T13:24:51.095Z,12.08
2022-09-27T13:30:48.182Z,12.05
2022-09-27T13:33:34.039Z,12.03
2022-09-27T13:36:21.718Z,12.06
2022-09-27T13:39:01.945Z,12.09
2022-09-27T13:41:34.249Z,12.07
2022-09-27T13:44:09.026Z,12.09
2022-09-27T13:46:38.547Z,12.13
2022-09-27T13:49:16.115Z,12.18
2022-09-27T13:51:48.525Z,12.18
2022-09-27T13:54:35.305Z,12.18
2022-09-27T13:57:06.570Z,12.14
2022-09-27T13:59:38.681Z,12.14
2022-09-27T14:02:14.504Z,12.14
2022-09-27T14:04:45.679Z,12.13
2022-09-27T14:07:16.738Z,12.11
2022-09-27T14:09:48.248Z,12.09
2022-09-27T14:12:20.425Z,12.06
2022-09-27T14:14:50.860Z,12.02
2022-09-27T14:17:20.211Z,12.00
2022-09-27T14:19:49.402Z,11.95
2022-09-27T14:22:18.973Z,11.94
2022-09-27T14:24:48.835Z,11.95
2022-09-27T14:27:18.966Z,11.98
2022-09-27T14:29:49.133Z,12.00
2022-09-27T14:32:19.347Z,12.02
2022-09-27T14:35:03.066Z,12.03
2022-09-27T14:37:31.797Z,12.03
2022-09-27T14:40:04.363Z,12.04
2022-09-27T14:42:36.481Z,12.03
2022-09-27T14:45:16.778Z,12.03
2022-09-27T14:47:49.464Z,12.02
2022-09-27T14:50:23.829Z,12.02
2022-09-27T14:52:56.160Z,12.01
2022-09-27T14:55:25.804Z,11.99
2022-09-27T14:57:55.662Z,11.98
2022-09-27T15:00:26.235Z,11.95
2022-09-27T15:02:56.313Z,11.91
2022-09-27T15:05:26.415Z,11.90
2022-09-27T15:07:57.020Z,11.92
2022-09-27T15:10:27.930Z,11.93
2022-09-27T15:12:59.958Z,11.93
2022-09-27T15:15:32.034Z,11.93
2022-09-27T15:18:01.325Z,11.91
2022-09-27T15:20:34.825Z,11.91
2022-09-27T15:23:04.987Z,11.92
2022-09-27T15:25:35.390Z,11.93
2022-09-27T15:28:05.520Z,11.94
2022-09-27T15:30:38.379Z,11.93
2022-09-27T15:33:08.737Z,11.92
2022-09-27T15:35:37.658Z,11.89
2022-09-27T15:38:15.190Z,11.87
2022-09-27T15:41:06.587Z,11.83
2022-09-27T15:43:37.215Z,11.78
2022-09-27T15:46:07.783Z,11.75
2022-09-27T15:48:37.682Z,11.72
2022-09-27T15:51:26.580Z,11.65
2022-09-27T15:53:55.318Z,11.56
2022-09-27T15:56:24.146Z,11.50
2022-09-27T15:58:53.841Z,11.41
2022-09-27T16:01:23.190Z,11.34
2022-09-27T16:03:51.923Z,11.25
2022-09-27T16:06:22.414Z,11.16
2022-09-27T16:08:51.556Z,11.07
2022-09-27T16:11:20.697Z,10.99
2022-09-27T16:13:50.297Z,10.93
2022-09-27T16:16:20.362Z,10.87
2022-09-27T16:18:49.345Z,10.82
2022-09-27T16:21:18.156Z,10.79
2022-09-27T16:23:47.286Z,10.75
2022-09-27T16:26:16.261Z,10.70
2022-09-27T16:28:45.340Z,10.67
2022-09-27T16:31:17.101Z,10.66
2022-09-27T16:33:49.519Z,10.67
2022-09-27T16:36:20.142Z,10.69
2022-09-27T16:38:52.869Z,10.70
2022-09-27T16:41:22.054Z,10.68
2022-09-27T16:43:50.986Z,10.66
2022-09-27T16:46:19.809Z,10.66
2022-09-27T16:48:49.639Z,10.69
2022-09-27T16:51:37.653Z,10.70
2022-09-27T16:54:07.887Z,10.69
2022-09-27T16:56:37.141Z,10.69
2022-09-27T16:59:07.095Z,10.71
2022-09-27T17:01:35.798Z,10.73
2022-09-27T17:04:04.676Z,10.74
2022-09-27T17:06:34.141Z,10.74
2022-09-27T17:09:04.812Z,10.72
2022-09-27T17:11:33.929Z,10.72
2022-09-27T17:14:03.621Z,10.73
2022-09-27T17:16:32.788Z,10.71
2022-09-27T17:19:02.499Z,10.69
2022-09-27T17:21:35.655Z,10.67
2022-09-27T17:24:07.517Z,10.67
2022-09-27T17:26:37.071Z,10.68
2022-09-27T17:29:06.035Z,10.67
2022-09-27T17:31:35.244Z,10.68
2022-09-27T17:34:04.433Z,10.66
2022-09-27T17:36:34.597Z,10.67
2022-09-27T17:39:03.469Z,10.66
2022-09-27T17:41:37.582Z,10.64
2022-09-27T17:44:08.517Z,10.61
2022-09-27T17:46:37.707Z,10.58
2022-09-27T17:49:24.513Z,10.55
2022-09-27T17:51:54.287Z,10.56
2022-09-27T17:54:24.432Z,10.54
2022-09-27T17:56:53.138Z,10.52
2022-09-27T17:59:23.089Z,10.52
2022-09-27T18:01:51.941Z,10.50
2022-09-27T18:04:20.745Z,10.48
2022-09-27T18:06:49.450Z,10.46
2022-09-27T18:09:18.783Z,10.44
2022-09-27T18:11:48.284Z,10.46
2022-09-27T18:14:18.066Z,10.42
2022-09-27T18:16:46.975Z,10.41
2022-09-27T18:19:17.038Z,10.41
2022-09-27T18:21:46.153Z,10.42
2022-09-27T18:24:15.395Z,10.42
2022-09-27T18:26:46.528Z,10.43
2022-09-27T18:29:16.063Z,10.44
2022-09-27T18:31:48.375Z,10.45
2022-09-27T18:34:18.881Z,10.46
2022-09-27T18:36:48.091Z,10.47
2022-09-27T18:39:19.278Z,10.49
2022-09-27T18:41:49.294Z,10.50
2022-09-27T18:44:19.392Z,10.49
2022-09-27T18:46:48.626Z,10.51
2022-09-27T18:49:21.087Z,10.53
2022-09-27T18:51:52.239Z,10.51
2022-09-27T18:54:21.637Z,10.52
2022-09-27T18:56:52.156Z,10.52
2022-09-27T18:59:23.568Z,10.53
2022-09-27T19:01:52.421Z,10.53
2022-09-27T19:04:24.647Z,10.54
2022-09-27T19:06:54.227Z,10.53
2022-09-27T19:09:23.343Z,10.54
2022-09-27T19:11:52.080Z,10.54
2022-09-27T19:14:22.553Z,10.56
2022-09-27T19:16:51.572Z,10.57
2022-09-27T19:19:20.872Z,10.55
2022-09-27T19:21:49.997Z,10.56
2022-09-27T19:24:19.023Z,10.55
2022-09-27T19:26:50.048Z,10.55
2022-09-27T19:29:19.060Z,10.54
2022-09-27T19:31:47.793Z,10.55
2022-09-27T19:34:16.798Z,10.53
2022-09-27T19:36:45.858Z,10.51
2022-09-27T19:39:14.684Z,10.52
2022-09-27T19:41:44.373Z,10.52
2022-09-27T19:44:13.692Z,10.50
2022-09-27T19:46:45.066Z,10.49
2022-09-27T19:49:14.398Z,10.47
2022-09-27T19:51:43.360Z,10.46
2022-09-27T19:54:12.813Z,10.44
2022-09-27T19:56:41.897Z,10.43
2022-09-27T19:59:11.454Z,10.41
2022-09-27T20:01:41.945Z,10.40
2022-09-27T20:04:11.879Z,10.38
2022-09-27T20:06:40.858Z,10.38
2022-09-27T20:09:09.938Z,10.34
2022-09-27T20:11:39.056Z,10.33
2022-09-27T20:14:07.825Z,10.33
2022-09-27T20:16:41.102Z,10.31
2022-09-27T20:19:11.499Z,10.28
2022-09-27T20:21:40.367Z,10.28
2022-09-27T20:24:09.064Z,10.26
2022-09-27T20:26:38.186Z,10.24
2022-09-27T20:29:07.723Z,10.22
2022-09-27T20:31:37.865Z,10.21
2022-09-27T20:34:09.190Z,10.21
2022-09-27T20:36:39.602Z,10.20
2022-09-27T20:39:09.837Z,10.17
2022-09-27T20:41:39.894Z,10.16
2022-09-27T20:44:09.516Z,10.15
2022-09-27T20:46:39.229Z,10.14
2022-09-27T20:49:09.635Z,10.14
2022-09-27T20:51:39.950Z,10.12
2022-09-27T20:54:09.742Z,10.09
2022-09-27T20:56:40.681Z,10.07
2022-09-27T20:59:15.014Z,10.03
2022-09-27T21:01:44.794Z,10.01
2022-09-27T21:04:15.354Z,9.98
2022-09-27T21:06:44.418Z,9.96
2022-09-27T21:09:18.413Z,9.93
2022-09-27T21:11:47.798Z,9.93
2022-09-27T21:14:16.645Z,9.92
2022-09-27T21:16:45.951Z,9.91
2022-09-27T21:19:14.653Z,9.91
2022-09-27T21:21:43.785Z,9.91
2022-09-27T21:24:12.434Z,9.93
2022-09-27T21:26:41.397Z,9.95
2022-09-27T21:29:11.729Z,9.98
2022-09-27T21:31:41.204Z,10.00
2022-09-27T21:34:10.192Z,10.01
2022-09-27T21:36:39.794Z,10.03
2022-09-27T21:39:09.556Z,10.04
2022-09-27T21:41:39.171Z,10.03
2022-09-27T21:44:08.858Z,10.03
2022-09-27T21:46:40.244Z,10.02
2022-09-27T21:49:09.777Z,10.03
2022-09-27T21:51:40.004Z,10.05
2022-09-27T21:54:09.490Z,10.07
2022-09-27T21:56:39.252Z,10.08
2022-09-27T21:59:10.453Z,10.08
2022-09-27T22:01:39.473Z,10.08
2022-09-27T22:04:08.297Z,10.08
2022-09-27T22:06:37.866Z,10.08
2022-09-27T22:09:08.179Z,10.09
2022-09-27T22:11:38.443Z,10.10
2022-09-27T22:14:07.946Z,10.12
2022-09-27T22:16:36.851Z,10.13
2022-09-27T22:19:05.607Z,10.14
2022-09-27T22:21:35.614Z,10.15
2022-09-27T22:24:08.000Z,10.15
2022-09-27T22:26:39.047Z,10.12
2022-09-27T22:29:09.019Z,10.17
2022-09-27T22:31:38.734Z,10.15
2022-09-27T22:34:10.758Z,10.19
2022-09-27T22:36:40.729Z,10.20
2022-09-27T22:39:09.861Z,10.20
2022-09-27T22:41:38.940Z,10.19
2022-09-27T22:44:08.667Z,10.19
2022-09-27T22:46:37.492Z,10.18
2022-09-27T22:49:06.445Z,10.16
2022-09-27T22:51:35.115Z,10.17
2022-09-27T22:54:04.014Z,10.17
2022-09-27T22:56:33.066Z,10.17
2022-09-27T22:59:01.697Z,10.16
2022-09-27T23:01:31.598Z,10.16
2022-09-27T23:04:00.784Z,10.16
2022-09-27T23:06:29.450Z,10.16
2022-09-27T23:08:59.293Z,10.15
2022-09-27T23:11:27.964Z,10.13
2022-09-27T23:13:56.633Z,10.13
2022-09-27T23:16:25.527Z,10.14
2022-09-27T23:18:55.197Z,10.14
2022-09-27T23:21:26.003Z,10.15
2022-09-27T23:23:56.235Z,10.16
2022-09-27T23:26:26.172Z,10.16
2022-09-27T23:28:55.410Z,10.15
2022-09-27T23:31:24.768Z,10.14
2022-09-27T23:33:54.380Z,10.13
2022-09-27T23:36:26.222Z,10.12
2022-09-27T23:38:56.260Z,10.09
2022-09-27T23:41:24.905Z,10.06
2022-09-27T23:43:54.248Z,10.02
2022-09-27T23:46:23.866Z,9.97
2022-09-27T23:48:53.618Z,9.90
2022-09-27T23:51:22.480Z,9.85
2022-09-27T23:53:51.154Z,9.82
2022-09-27T23:56:19.789Z,9.80
2022-09-27T23:58:48.438Z,9.78
